Time;durP1;ratioP1;P1;durP2;ratioP2;P2;SDS_P1;SDS_P2;PMS_P1;PMS_P2;Temp;Humidity;BMP_temperature;BMP_pressure;BME280_temperature;BME280_humidity;BME280_pressure;Samples;Min_cycle;Max_cycle;Signal;HPM_P1;HPM_P2
2022/01/03 00:01:33;;;;;;;2.23;2.13;;;5.50;99.90;;;;;;5133696;27;20191;-58
2022/01/03 00:04:17;;;;;;;2.27;1.87;;;5.50;99.90;;;;;;5130743;27;20232;-61
2022/01/03 00:07:02;;;;;;;2.23;2.10;;;5.50;99.90;;;;;;5131867;27;20205;-57
2022/01/03 00:09:47;;;;;;;2.70;2.30;;;5.50;99.90;;;;;;5132949;27;20202;-52
2022/01/03 00:12:33;;;;;;;1.63;1.50;;;5.40;99.90;;;;;;5130266;27;20194;-56
2022/01/03 00:15:18;;;;;;;2.30;2.10;;;5.40;99.90;;;;;;5132557;27;20216;-60
2022/01/03 00:18:04;;;;;;;2.63;2.00;;;5.40;99.90;;;;;;5132567;27;20240;-56
2022/01/03 00:20:56;;;;;;;2.77;2.57;;;5.30;99.90;;;;;;5129233;27;20265;-58
2022/01/03 00:23:49;;;;;;;4.50;2.20;;;5.30;99.90;;;;;;5132249;27;20248;-56
2022/01/03 00:26:36;;;;;;;3.07;2.63;;;5.30;99.90;;;;;;5132156;27;20275;-57
2022/01/03 00:29:22;;;;;;;2.20;2.10;;;5.30;99.90;;;;;;5129800;27;20277;-53
2022/01/03 00:32:09;;;;;;;4.20;2.20;;;5.30;99.90;;;;;;5132396;27;20191;-59
2022/01/03 00:34:55;;;;;;;3.03;2.40;;;5.30;99.90;;;;;;5130274;27;20221;-61
2022/01/03 00:37:43;;;;;;;4.57;2.27;;;5.30;99.90;;;;;;5129566;27;20244;-57
2022/01/03 00:40:28;;;;;;;2.20;2.00;;;5.30;99.90;;;;;;5133283;27;20240;-51
2022/01/03 00:43:16;;;;;;;1.87;1.70;;;5.30;99.90;;;;;;5126826;27;20247;-55
2022/01/03 00:46:00;;;;;;;30.20;13.43;;;5.30;99.90;;;;;;5110476;27;20203;-55
2022/01/03 00:48:45;;;;;;;1.37;1.33;;;5.40;99.90;;;;;;5112757;27;20191;-56
2022/01/03 00:51:30;;;;;;;2.93;1.47;;;5.40;99.90;;;;;;5107968;27;20280;-52
2022/01/03 00:54:14;;;;;;;2.10;1.90;;;5.30;99.90;;;;;;5111049;27;20199;-55
2022/01/03 00:57:04;;;;;;;2.03;1.80;;;5.30;99.90;;;;;;5111308;27;20289;-53
2022/01/03 01:00:02;;;;;;;1.50;1.50;;;5.30;99.90;;;;;;5108255;27;20241;-51
2022/01/03 01:02:54;;;;;;;2.20;1.30;;;5.30;99.90;;;;;;5111400;27;20248;-60
2022/01/03 01:05:41;;;;;;;1.83;1.73;;;5.20;99.90;;;;;;5111271;27;20203;-61
2022/01/03 01:08:28;;;;;;;1.33;1.23;;;5.20;99.90;;;;;;5107411;27;20195;-55
2022/01/03 01:11:15;;;;;;;3.40;1.83;;;5.30;99.90;;;;;;5110971;27;20207;-60
2022/01/03 01:14:01;;;;;;;1.40;1.27;;;5.60;99.90;;;;;;5109403;27;20199;-60
2022/01/03 01:16:45;;;;;;;1.33;1.33;;;6.00;99.90;;;;;;5108176;27;20306;-57
2022/01/03 01:19:30;;;;;;;1.40;1.27;;;7.00;99.90;;;;;;5111540;27;20199;-58
2022/01/03 01:22:14;;;;;;;2.17;1.97;;;6.80;99.90;;;;;;5108421;27;20271;-60
2022/01/03 01:27:58;;;;;;;1.23;1.17;;;6.50;99.90;;;;;;5126780;27;20183;-55
2022/01/03 01:30:43;;;;;;;2.77;1.77;;;6.10;99.90;;;;;;5107360;27;20241;-58
2022/01/03 01:33:31;;;;;;;2.07;1.87;;;5.80;99.90;;;;;;5109509;27;20194;-60
2022/01/03 01:36:17;;;;;;;1.87;1.77;;;5.60;99.90;;;;;;5111371;27;20235;-53
2022/01/03 01:39:06;;;;;;;1.40;1.40;;;5.50;99.90;;;;;;5106661;27;20199;-56
2022/01/03 01:41:55;;;;;;;1.40;1.23;;;5.70;99.90;;;;;;5110465;27;20199;-54
2022/01/03 01:44:50;;;;;;;0.73;0.73;;;6.20;99.90;;;;;;5109730;27;20259;-54
2022/01/03 01:47:39;;;;;;;4.90;1.37;;;7.00;99.90;;;;;;5106189;27;20196;-55
2022/01/03 01:50:28;;;;;;;1.67;1.50;;;7.30;99.90;;;;;;5110236;27;20223;-55
2022/01/03 01:53:18;;;;;;;2.23;1.20;;;7.70;99.90;;;;;;5110368;27;20226;-57
2022/01/03 01:56:08;;;;;;;1.67;1.33;;;7.90;99.90;;;;;;5106821;27;20253;-58
2022/01/03 01:59:13;;;;;;;1.47;1.10;;;8.00;99.90;;;;;;5110974;27;20195;-54
2022/01/03 02:02:04;;;;;;;0.70;0.67;;;8.10;99.90;;;;;;5110118;27;20203;-57
2022/01/03 02:05:04;;;;;;;1.17;0.87;;;8.20;99.90;;;;;;5107553;27;20191;-57
2022/01/03 02:08:10;;;;;;;1.00;1.00;;;8.10;99.90;;;;;;5110865;27;20271;-53
2022/01/03 02:14:37;;;;;;;1.87;1.20;;;8.10;99.90;;;;;;5124897;27;20233;-61
2022/01/03 02:17:21;;;;;;;1.33;0.60;;;8.40;99.90;;;;;;5107647;27;20281;-59
2022/01/03 02:20:08;;;;;;;1.27;1.17;;;8.30;99.90;;;;;;5110616;27;20191;-61
2022/01/03 02:22:54;;;;;;;2.43;0.70;;;8.40;99.90;;;;;;5107980;27;20268;-55
2022/01/03 02:25:38;;;;;;;1.50;1.07;;;8.30;99.90;;;;;;5108585;27;20199;-54
2022/01/03 02:28:23;;;;;;;0.80;0.80;;;8.30;99.90;;;;;;5110853;27;20217;-53
2022/01/03 02:31:07;;;;;;;2.57;0.80;;;8.30;99.90;;;;;;5106457;27;20231;-55
2022/01/03 02:33:52;;;;;;;1.87;1.37;;;8.40;99.90;;;;;;5109932;28;20199;-56
2022/01/03 02:36:37;;;;;;;1.37;1.00;;;8.50;99.90;;;;;;5111099;28;20234;-58
2022/01/03 02:39:21;;;;;;;0.90;0.90;;;8.60;99.90;;;;;;5106799;28;20253;-55
2022/01/03 02:42:05;;;;;;;2.13;0.90;;;8.60;99.90;;;;;;5110732;28;20206;-50
2022/01/03 02:45:09;;;;;;;2.10;0.60;;;8.80;99.90;;;;;;5108914;28;20224;-57
2022/01/03 02:48:01;;;;;;;0.53;0.50;;;8.80;99.90;;;;;;5107068;28;20218;-55
2022/01/03 02:50:45;;;;;;;1.50;0.77;;;9.00;99.90;;;;;;5110272;28;20241;-55
2022/01/03 02:53:30;;;;;;;1.13;0.60;;;9.30;99.90;;;;;;5108882;28;20194;-55
2022/01/03 02:56:14;;;;;;;0.40;0.40;;;9.20;99.90;;;;;;5108481;27;20191;-55
2022/01/03 02:58:59;;;;;;;1.70;0.70;;;9.30;99.90;;;;;;5115335;27;20199;-52
2022/01/03 03:01:44;;;;;;;3.30;0.60;;;9.30;99.90;;;;;;5111607;27;20191;-57
2022/01/03 03:04:29;;;;;;;0.60;0.60;;;9.40;99.90;;;;;;5118408;27;20240;-52
2022/01/03 03:07:21;;;;;;;0.60;0.60;;;9.50;99.90;;;;;;5136132;27;20244;-55
2022/01/03 03:10:11;;;;;;;0.90;0.40;;;9.50;99.90;;;;;;5131555;27;20218;-56
2022/01/03 03:12:56;;;;;;;2.53;0.53;;;9.50;99.90;;;;;;5134112;27;20194;-57
2022/01/03 03:15:40;;;;;;;1.93;0.60;;;9.50;99.90;;;;;;5134455;27;20271;-56
2022/01/03 03:18:25;;;;;;;0.50;0.50;;;9.50;99.90;;;;;;5131180;27;20202;-55
2022/01/03 03:21:10;;;;;;;0.43;0.43;;;9.60;99.90;;;;;;5135205;27;20191;-54
2022/01/03 03:23:54;;;;;;;0.37;0.37;;;9.60;99.90;;;;;;5133626;27;20179;-58
2022/01/03 03:26:39;;;;;;;0.37;0.37;;;9.50;99.90;;;;;;5131766;27;20267;-58
2022/01/03 03:29:23;;;;;;;0.57;0.40;;;9.50;99.90;;;;;;5135064;27;20267;-53
2022/01/03 03:32:08;;;;;;;0.33;0.33;;;9.50;99.90;;;;;;5131983;27;20199;-62
2022/01/03 03:34:53;;;;;;;0.30;0.30;;;9.60;99.90;;;;;;5133397;27;20244;-60
2022/01/03 03:37:37;;;;;;;3.67;0.50;;;9.70;99.90;;;;;;5135040;27;20222;-57
2022/01/03 03:40:22;;;;;;;0.80;0.50;;;9.90;99.90;;;;;;5130830;27;20205;-54
2022/01/03 03:43:06;;;;;;;0.83;0.40;;;10.00;99.90;;;;;;5133576;27;20190;-57
2022/01/03 03:45:51;;;;;;;0.20;0.20;;;9.90;99.90;;;;;;5134128;27;20273;-60
2022/01/03 03:48:36;;;;;;;0.33;0.30;;;9.10;99.90;;;;;;5131099;27;20195;-56
2022/01/03 03:51:20;;;;;;;0.10;0.10;;;8.60;99.90;;;;;;5134115;27;20271;-56
2022/01/03 03:54:04;;;;;;;0.00;0.00;;;8.20;99.90;;;;;;5132343;27;20192;-61
2022/01/03 03:56:48;;;;;;;0.00;0.00;;;8.10;99.90;;;;;;5131449;27;20275;-50
2022/01/03 03:59:33;;;;;;;0.93;0.10;;;7.90;99.90;;;;;;5134751;27;20244;-54
2022/01/03 04:02:17;;;;;;;0.00;0.00;;;7.80;99.90;;;;;;5130532;27;20203;-56
2022/01/03 04:05:02;;;;;;;1.33;0.03;;;7.80;99.90;;;;;;5126255;27;20202;-53
2022/01/03 04:07:47;;;;;;;0.20;0.10;;;7.70;99.90;;;;;;5134428;27;20195;-53
2022/01/03 04:10:31;;;;;;;0.00;0.00;;;7.60;99.90;;;;;;5129905;27;20226;-52
2022/01/03 04:13:15;;;;;;;0.10;0.10;;;7.60;99.90;;;;;;5134208;27;20186;-50
2022/01/03 04:16:00;;;;;;;0.00;0.00;;;7.60;99.90;;;;;;5133498;27;20190;-56
2022/01/03 04:18:44;;;;;;;0.00;0.00;;;7.50;99.90;;;;;;5130684;27;20194;-60
2022/01/03 04:21:28;;;;;;;0.00;0.00;;;7.50;99.90;;;;;;5133729;27;20194;-53
2022/01/03 04:24:13;;;;;;;0.00;0.00;;;7.40;99.90;;;;;;5131052;27;20191;-57
2022/01/03 04:26:57;;;;;;;0.00;0.00;;;7.30;99.90;;;;;;5130732;27;20186;-58
2022/01/03 04:29:42;;;;;;;0.00;0.00;;;7.30;99.90;;;;;;5119653;27;20273;-53
2022/01/03 04:32:26;;;;;;;0.10;0.10;;;7.30;99.90;;;;;;5119136;27;20219;-55
2022/01/03 04:35:10;;;;;;;0.20;0.00;;;7.30;99.90;;;;;;5123974;27;20261;-58
2022/01/03 04:37:55;;;;;;;0.00;0.00;;;7.40;99.90;;;;;;5123243;27;20229;-48
2022/01/03 04:40:40;;;;;;;0.00;0.00;;;7.30;99.90;;;;;;5114679;27;20192;-55
2022/01/03 04:43:25;;;;;;;0.00;0.00;;;7.30;99.90;;;;;;5122596;27;20219;-51
2022/01/03 04:46:09;;;;;;;0.00;0.00;;;7.40;99.90;;;;;;5128955;27;20194;-60
2022/01/03 04:48:54;;;;;;;0.07;0.07;;;7.30;99.90;;;;;;5129963;27;20190;-58
2022/01/03 04:51:39;;;;;;;0.20;0.10;;;7.30;99.90;;;;;;5132793;27;20230;-56
2022/01/03 04:54:23;;;;;;;0.00;0.00;;;7.30;99.90;;;;;;5119281;27;20174;-59
2022/01/03 04:57:07;;;;;;;0.00;0.00;;;7.30;99.90;;;;;;5127902;27;20214;-55
2022/01/03 04:59:52;;;;;;;0.10;0.10;;;7.30;99.90;;;;;;5130531;27;20255;-55
2022/01/03 05:02:37;;;;;;;0.00;0.00;;;7.20;99.90;;;;;;5128016;27;20198;-52
2022/01/03 05:05:22;;;;;;;0.00;0.00;;;7.30;99.90;;;;;;5126546;27;20194;-54
2022/01/03 05:08:06;;;;;;;6.93;3.70;;;7.40;99.90;;;;;;5128183;27;20224;-61
2022/01/03 05:10:51;;;;;;;0.10;0.10;;;7.40;99.90;;;;;;5123000;27;20195;-60
2022/01/03 05:13:35;;;;;;;0.20;0.20;;;7.40;99.90;;;;;;5111327;27;20203;-57
2022/01/03 05:16:20;;;;;;;1.70;0.20;;;7.40;99.90;;;;;;5109690;27;20187;-62
2022/01/03 05:19:04;;;;;;;0.20;0.20;;;7.40;99.90;;;;;;5106789;27;20191;-58
2022/01/03 05:21:50;;;;;;;0.10;0.10;;;7.50;99.90;;;;;;5110521;27;20183;-57
2022/01/03 05:24:35;;;;;;;0.00;0.00;;;7.50;99.90;;;;;;5108688;27;20241;-55
2022/01/03 05:27:19;;;;;;;0.00;0.00;;;7.50;99.90;;;;;;5109614;27;20263;-59
2022/01/03 05:30:04;;;;;;;0.00;0.00;;;7.30;99.90;;;;;;5106445;27;20191;-55
2022/01/03 05:32:49;;;;;;;0.00;0.00;;;7.20;99.90;;;;;;5106061;27;20183;-54
2022/01/03 05:35:34;;;;;;;0.00;0.00;;;7.20;99.90;;;;;;5111191;27;20195;-58
2022/01/03 05:38:18;;;;;;;1.37;0.10;;;7.10;99.90;;;;;;5136655;27;20223;-59
2022/01/03 05:41:03;;;;;;;0.40;0.00;;;7.00;99.90;;;;;;5105324;27;20261;-58
2022/01/03 05:43:49;;;;;;;1.07;0.20;;;7.00;99.90;;;;;;5111310;27;20234;-54
2022/01/03 05:46:34;;;;;;;0.23;0.23;;;7.00;99.90;;;;;;5122546;27;20183;-55
2022/01/03 05:49:18;;;;;;;0.00;0.00;;;6.90;99.90;;;;;;5123796;27;20196;-57
2022/01/03 05:52:03;;;;;;;0.10;0.00;;;7.00;99.90;;;;;;5125822;27;20265;-52
2022/01/03 05:54:48;;;;;;;0.10;0.10;;;7.00;99.90;;;;;;5115093;27;20199;-65
2022/01/03 05:57:33;;;;;;;0.73;0.07;;;7.00;99.90;;;;;;5117084;27;20231;-60
2022/01/03 06:00:19;;;;;;;0.10;0.10;;;7.00;99.90;;;;;;5122729;27;20205;-65
2022/01/03 06:03:03;;;;;;;1.30;0.20;;;7.00;99.90;;;;;;5119759;27;20213;-54
2022/01/03 06:08:42;;;;;;;0.00;0.00;;;6.90;99.90;;;;;;5124767;27;20192;-64
2022/01/03 06:11:26;;;;;;;0.00;0.00;;;6.80;99.90;;;;;;5120417;27;20187;-58
2022/01/03 06:14:13;;;;;;;0.07;0.00;;;6.70;99.90;;;;;;5125166;27;20232;-54
2022/01/03 06:16:58;;;;;;;0.10;0.10;;;6.60;99.90;;;;;;5120203;27;20215;-56
2022/01/03 06:19:43;;;;;;;0.10;0.10;;;6.60;99.90;;;;;;5119823;27;20211;-57
2022/01/03 06:22:28;;;;;;;0.00;0.00;;;6.60;99.90;;;;;;5125843;27;20255;-55
2022/01/03 06:25:13;;;;;;;0.13;0.13;;;6.70;99.90;;;;;;5121703;27;20187;-52
2022/01/03 06:27:57;;;;;;;0.40;0.10;;;6.60;99.90;;;;;;5121019;27;20180;-54
2022/01/03 06:30:43;;;;;;;0.10;0.10;;;6.70;99.90;;;;;;5122963;27;20183;-55
2022/01/03 06:33:27;;;;;;;0.77;0.40;;;6.70;99.90;;;;;;5120353;27;20464;-54
2022/01/03 06:36:12;;;;;;;0.30;0.30;;;6.70;99.90;;;;;;5124828;28;20245;-56
2022/01/03 06:38:57;;;;;;;0.00;0.00;;;6.80;99.90;;;;;;5121130;27;20179;-58
2022/01/03 06:41:42;;;;;;;0.20;0.00;;;6.80;99.90;;;;;;5119206;28;20211;-54
2022/01/03 06:44:26;;;;;;;0.00;0.00;;;6.80;99.90;;;;;;5125140;28;20243;-56
2022/01/03 06:47:12;;;;;;;0.00;0.00;;;6.80;99.90;;;;;;5122318;28;20252;-55
2022/01/03 06:49:56;;;;;;;0.00;0.00;;;6.80;99.90;;;;;;5116549;28;20228;-58
2022/01/03 06:52:40;;;;;;;0.00;0.00;;;6.80;99.90;;;;;;5125520;28;20179;-56
2022/01/03 06:55:25;;;;;;;0.30;0.20;;;6.80;99.90;;;;;;5120806;28;20188;-56
2022/01/03 06:58:10;;;;;;;0.20;0.20;;;6.80;99.90;;;;;;5122799;28;20289;-56
2022/01/03 07:00:54;;;;;;;1.33;0.23;;;6.90;99.90;;;;;;5124620;28;20267;-57
2022/01/03 07:03:38;;;;;;;2.53;0.07;;;6.90;99.90;;;;;;5159872;27;20194;-57
2022/01/03 07:06:23;;;;;;;0.17;0.10;;;6.90;99.90;;;;;;5145554;27;20239;-54
2022/01/03 07:09:07;;;;;;;0.10;0.10;;;6.90;99.90;;;;;;5141550;27;20571;-59
2022/01/03 07:11:51;;;;;;;0.10;0.10;;;7.00;99.90;;;;;;5150995;27;20227;-56
2022/01/03 07:20:22;;;;;;;0.10;0.10;;;6.90;99.90;;;;;;5124724;28;20266;-57
2022/01/03 07:23:07;;;;;;;0.00;0.00;;;6.90;99.90;;;;;;5155843;27;20217;-56
2022/01/03 07:25:51;;;;;;;0.53;0.13;;;6.90;99.90;;;;;;5151494;27;20219;-58
2022/01/03 07:28:36;;;;;;;0.00;0.00;;;6.80;99.90;;;;;;5124064;28;20223;-54
2022/01/03 07:31:20;;;;;;;0.00;0.00;;;6.70;99.90;;;;;;5139507;27;20192;-54
2022/01/03 07:34:05;;;;;;;0.00;0.00;;;6.90;99.90;;;;;;5116287;27;20237;-59
2022/01/03 07:36:50;;;;;;;0.00;0.00;;;6.90;99.90;;;;;;5125265;27;20293;-61
2022/01/03 07:39:36;;;;;;;0.10;0.10;;;7.00;99.90;;;;;;5118712;27;20366;-55
2022/01/03 07:42:21;;;;;;;0.10;0.10;;;7.00;99.90;;;;;;5115528;27;20211;-60
2022/01/03 07:45:05;;;;;;;0.10;0.10;;;7.00;99.90;;;;;;5112929;27;20223;-52
2022/01/03 07:47:50;;;;;;;0.10;0.10;;;7.00;99.90;;;;;;5109144;27;20218;-58
2022/01/03 07:50:35;;;;;;;0.73;0.73;;;7.00;99.90;;;;;;5104779;27;20195;-52
2022/01/03 07:53:19;;;;;;;0.53;0.17;;;7.00;99.90;;;;;;5111997;27;20181;-61
2022/01/03 07:56:05;;;;;;;0.93;0.10;;;7.10;99.90;;;;;;5107350;27;20187;-61
2022/01/03 07:58:49;;;;;;;0.20;0.10;;;7.10;99.90;;;;;;5113333;27;20305;-61
2022/01/03 08:01:33;;;;;;;0.10;0.10;;;7.20;99.90;;;;;;5114635;27;20223;-61
2022/01/03 08:04:18;;;;;;;0.53;0.10;;;7.20;99.90;;;;;;5110767;27;20187;-60
2022/01/03 08:07:03;;;;;;;0.20;0.20;;;7.10;99.90;;;;;;5114723;27;20227;-61
2022/01/03 08:09:47;;;;;;;0.20;0.20;;;7.10;99.90;;;;;;5112909;27;20219;-61
2022/01/03 08:12:32;;;;;;;0.10;0.10;;;7.10;99.90;;;;;;5110712;27;20187;-56
2022/01/03 08:15:16;;;;;;;0.30;0.30;;;7.20;99.90;;;;;;5108602;27;20292;-60
2022/01/03 08:18:00;;;;;;;0.60;0.40;;;7.30;99.90;;;;;;5109758;27;20303;-57
2022/01/03 08:20:45;;;;;;;0.17;0.17;;;7.40;99.90;;;;;;5110318;27;20199;-57
2022/01/03 08:23:30;;;;;;;2.63;0.77;;;7.40;99.90;;;;;;5111022;27;20202;-57
2022/01/03 08:26:15;;;;;;;0.20;0.20;;;7.40;99.90;;;;;;5100391;27;20218;-57
2022/01/03 08:29:00;;;;;;;0.30;0.17;;;7.30;99.90;;;;;;5114172;27;20253;-56
2022/01/03 08:31:45;;;;;;;1.20;0.20;;;7.30;99.90;;;;;;5119724;27;20195;-54
2022/01/03 08:34:29;;;;;;;0.77;0.10;;;7.30;99.90;;;;;;5109852;27;20203;-57
2022/01/03 08:37:14;;;;;;;0.07;0.07;;;7.30;99.90;;;;;;5114393;27;20224;-55
2022/01/03 08:40:03;;;;;;;0.93;0.27;;;7.40;99.90;;;;;;5112122;27;20187;-57
2022/01/03 08:42:48;;;;;;;0.47;0.47;;;7.40;99.90;;;;;;5107058;27;20187;-56
2022/01/03 08:45:32;;;;;;;0.43;0.43;;;7.50;99.90;;;;;;5118324;27;20223;-54
2022/01/03 08:48:16;;;;;;;1.50;0.40;;;7.60;99.90;;;;;;5120919;27;20187;-55
2022/01/03 08:51:00;;;;;;;0.20;0.20;;;7.70;99.90;;;;;;5117363;27;20195;-61
2022/01/03 08:53:45;;;;;;;0.17;0.10;;;7.70;99.90;;;;;;5114018;27;20187;-57
2022/01/03 08:56:29;;;;;;;0.20;0.20;;;7.80;99.90;;;;;;5107110;27;20194;-61
2022/01/03 08:59:14;;;;;;;0.00;0.00;;;7.80;99.90;;;;;;5107489;27;20214;-57
2022/01/03 09:01:59;;;;;;;0.20;0.20;;;7.90;99.90;;;;;;5108639;27;20245;-65
2022/01/03 09:04:44;;;;;;;0.27;0.10;;;7.90;99.90;;;;;;5108804;27;20325;-54
2022/01/03 09:07:28;;;;;;;0.07;0.07;;;7.90;99.90;;;;;;5113541;27;20281;-57
2022/01/03 09:10:13;;;;;;;0.77;0.30;;;8.00;99.90;;;;;;5110717;27;20300;-62
2022/01/03 09:12:57;;;;;;;0.00;0.00;;;8.00;99.90;;;;;;5108052;27;20233;-61
2022/01/03 09:15:46;;;;;;;1.30;0.10;;;8.10;99.90;;;;;;5111939;27;20199;-60
2022/01/03 09:18:31;;;;;;;1.23;0.20;;;8.10;99.90;;;;;;5108562;27;20223;-56
2022/01/03 09:21:15;;;;;;;0.10;0.10;;;8.20;99.90;;;;;;5110271;27;20265;-58
2022/01/03 09:30:24;;;;;;;0.03;0.03;;;8.30;99.90;;;;;;5120812;27;20272;-56
2022/01/03 09:33:09;;;;;;;0.30;0.10;;;8.30;99.90;;;;;;5110035;27;20187;-60
2022/01/03 09:35:53;;;;;;;0.13;0.13;;;8.40;99.90;;;;;;5107098;27;20259;-63
2022/01/03 09:38:38;;;;;;;0.37;0.37;;;8.60;99.90;;;;;;5105500;27;20329;-65
2022/01/03 09:41:24;;;;;;;0.40;0.30;;;8.50;99.90;;;;;;5105727;28;20191;-62
2022/01/03 09:44:13;;;;;;;1.07;0.27;;;8.50;99.90;;;;;;5106934;27;20271;-60
2022/01/03 09:47:01;;;;;;;0.23;0.20;;;8.60;99.90;;;;;;5104466;28;20284;-62
2022/01/03 09:49:47;;;;;;;0.77;0.30;;;8.60;99.90;;;;;;5113434;27;20191;-60
2022/01/03 09:52:32;;;;;;;0.43;0.00;;;8.60;99.90;;;;;;5121669;27;20196;-63
2022/01/03 09:55:18;;;;;;;0.00;0.00;;;8.60;99.90;;;;;;5126446;27;20200;-62
2022/01/03 09:58:02;;;;;;;0.10;0.10;;;8.70;99.90;;;;;;5124924;27;20264;-58
2022/01/03 10:00:47;;;;;;;0.80;0.70;;;8.80;99.90;;;;;;5111684;27;20222;-59
2022/01/03 10:03:35;;;;;;;2.33;0.43;;;8.80;99.90;;;;;;5111709;27;20210;-59
2022/01/03 10:06:20;;;;;;;0.17;0.17;;;8.80;99.90;;;;;;5108766;27;20195;-64
2022/01/03 10:09:05;;;;;;;0.10;0.10;;;8.90;99.90;;;;;;5108881;27;20196;-67
2022/01/03 10:11:50;;;;;;;1.10;0.40;;;9.00;99.90;;;;;;5111050;27;20191;-66
2022/01/03 10:14:34;;;;;;;0.10;0.10;;;9.10;99.90;;;;;;5107474;27;20191;-63
2022/01/03 10:17:18;;;;;;;0.37;0.37;;;9.20;99.90;;;;;;5109861;27;20221;-64
2022/01/03 10:20:05;;;;;;;2.00;0.47;;;9.20;99.90;;;;;;5110638;27;20187;-65
2022/01/03 10:22:49;;;;;;;0.17;0.17;;;9.20;99.90;;;;;;5114545;27;20265;-58
2022/01/03 10:25:35;;;;;;;0.30;0.30;;;9.20;99.90;;;;;;5124338;27;20191;-61
2022/01/03 10:28:25;;;;;;;0.20;0.20;;;9.30;99.90;;;;;;5124572;27;20217;-62
2022/01/03 10:31:20;;;;;;;0.20;0.20;;;9.50;99.90;;;;;;5116207;27;20190;-63
2022/01/03 10:34:07;;;;;;;0.23;0.20;;;9.50;99.90;;;;;;5131516;27;20198;-59
2022/01/03 10:36:56;;;;;;;0.40;0.20;;;9.70;99.90;;;;;;5129297;27;20307;-61
2022/01/03 10:39:40;;;;;;;1.30;0.17;;;9.70;99.90;;;;;;5121133;28;20179;-58
2022/01/03 10:42:25;;;;;;;0.43;0.40;;;9.80;99.90;;;;;;5111270;28;20195;-58
2022/01/03 10:45:10;;;;;;;0.33;0.33;;;9.90;99.90;;;;;;5108327;28;20276;-62
2022/01/03 10:47:54;;;;;;;0.30;0.23;;;9.70;99.90;;;;;;5107684;28;20187;-64
2022/01/03 10:50:44;;;;;;;1.30;0.30;;;9.50;99.90;;;;;;5109427;28;20190;-66
2022/01/03 10:53:40;;;;;;;1.23;0.37;;;9.50;99.90;;;;;;5087097;28;20284;-60
2022/01/03 10:56:36;;;;;;;0.33;0.33;;;9.50;99.90;;;;;;5088907;28;20281;-61
2022/01/03 10:59:25;;;;;;;1.27;0.53;;;9.40;99.90;;;;;;5108625;28;20192;-57
2022/01/03 11:02:12;;;;;;;1.23;0.50;;;9.40;99.90;;;;;;5103400;28;20249;-61
2022/01/03 11:04:59;;;;;;;0.10;0.10;;;9.30;99.90;;;;;;5107670;28;20183;-58
2022/01/03 11:10:45;;;;;;;2.63;0.40;;;9.30;99.90;;;;;;5122279;28;20191;-62
2022/01/03 11:13:32;;;;;;;0.40;0.40;;;9.20;99.90;;;;;;5108342;28;20187;-62
2022/01/03 11:16:17;;;;;;;0.63;0.30;;;9.20;99.90;;;;;;5108307;27;20215;-62
2022/01/03 11:19:02;;;;;;;1.10;0.53;;;9.20;99.90;;;;;;5110263;27;20191;-62
2022/01/03 11:21:47;;;;;;;0.10;0.10;;;9.20;99.90;;;;;;5114540;27;20245;-61
2022/01/03 11:24:31;;;;;;;0.37;0.23;;;9.20;99.90;;;;;;5113516;27;20269;-65
2022/01/03 11:27:15;;;;;;;0.43;0.20;;;9.10;99.90;;;;;;5111590;27;20231;-60
2022/01/03 11:30:00;;;;;;;2.83;0.47;;;9.10;99.90;;;;;;5114702;27;20252;-55
2022/01/03 11:32:48;;;;;;;0.13;0.10;;;9.00;99.90;;;;;;5111102;27;20195;-57
2022/01/03 11:35:33;;;;;;;1.50;0.50;;;8.90;99.90;;;;;;5111994;27;20199;-57
2022/01/03 11:38:23;;;;;;;1.43;0.33;;;8.90;99.90;;;;;;5114613;27;20214;-60
2022/01/03 11:41:10;;;;;;;2.03;0.50;;;8.90;99.90;;;;;;5110302;27;20214;-63
2022/01/03 11:43:55;;;;;;;2.47;0.70;;;8.90;99.90;;;;;;5115433;27;20231;-62
2022/01/03 11:46:47;;;;;;;0.13;0.13;;;9.00;99.90;;;;;;5128166;27;20269;-63
2022/01/03 11:49:31;;;;;;;0.37;0.37;;;9.00;99.90;;;;;;5125083;27;20245;-62
2022/01/03 11:52:16;;;;;;;0.20;0.20;;;9.10;99.90;;;;;;5128338;27;20211;-57
2022/01/03 11:55:01;;;;;;;1.97;0.70;;;9.20;99.90;;;;;;5126782;27;20245;-58
2022/01/03 12:04:16;;;;;;;0.20;0.20;;;9.40;99.90;;;;;;5129240;27;20200;-57
2022/01/03 12:07:09;;;;;;;0.30;0.27;;;9.40;99.90;;;;;;5123631;27;20219;-58
2022/01/03 12:10:09;;;;;;;1.30;0.13;;;9.50;99.90;;;;;;5127792;27;20192;-58
2022/01/03 12:12:59;;;;;;;0.73;0.50;;;9.50;99.90;;;;;;5128204;27;20273;-58
2022/01/03 12:15:43;;;;;;;0.50;0.50;;;9.50;99.90;;;;;;5123854;27;20199;-60
2022/01/03 12:18:30;;;;;;;1.17;0.30;;;9.50;99.90;;;;;;5126740;27;20308;-60
2022/01/03 12:21:43;;;;;;;0.10;0.10;;;9.40;99.90;;;;;;5127016;27;20190;-63
2022/01/03 12:24:39;;;;;;;1.40;0.27;;;9.40;99.90;;;;;;5123812;27;20190;-65
2022/01/03 12:27:41;;;;;;;0.20;0.20;;;9.30;99.90;;;;;;5125983;27;20213;-60
2022/01/03 12:30:34;;;;;;;0.10;0.10;;;9.30;99.90;;;;;;5127739;27;20190;-62
2022/01/03 12:33:19;;;;;;;0.27;0.27;;;9.40;99.90;;;;;;5125761;27;20241;-61
2022/01/03 12:36:15;;;;;;;0.43;0.30;;;9.30;99.90;;;;;;5126856;27;20255;-59
2022/01/03 12:39:06;;;;;;;1.03;0.40;;;9.30;99.90;;;;;;5128336;27;20207;-59
2022/01/03 12:41:52;;;;;;;0.30;0.30;;;9.30;99.90;;;;;;5123415;27;20298;-54
2022/01/03 12:44:49;;;;;;;0.20;0.20;;;9.30;99.90;;;;;;5126002;27;20255;-53
2022/01/03 12:47:38;;;;;;;0.33;0.33;;;9.30;99.90;;;;;;5127385;27;20198;-58
2022/01/03 12:50:29;;;;;;;0.30;0.30;;;9.40;99.90;;;;;;5123602;27;20187;-52
2022/01/03 12:53:37;;;;;;;0.20;0.20;;;9.40;99.90;;;;;;5125718;27;20211;-56
2022/01/03 12:56:28;;;;;;;0.10;0.10;;;9.50;99.90;;;;;;5124824;27;20228;-54
2022/01/03 12:59:14;;;;;;;2.20;0.40;;;9.50;99.90;;;;;;5123693;27;20231;-58
2022/01/03 13:02:24;;;;;;;0.33;0.33;;;9.50;99.90;;;;;;5125247;27;20241;-58
2022/01/03 13:05:11;;;;;;;0.73;0.50;;;9.50;99.90;;;;;;5126510;27;20195;-56
2022/01/03 13:07:55;;;;;;;0.60;0.40;;;9.50;99.90;;;;;;5129202;27;20206;-66
2022/01/03 13:10:39;;;;;;;0.70;0.70;;;9.50;99.90;;;;;;5120570;27;20199;-56
2022/01/03 13:13:27;;;;;;;0.20;0.20;;;9.50;99.90;;;;;;5116693;27;20241;-56
2022/01/03 13:16:19;;;;;;;0.40;0.40;;;9.50;99.90;;;;;;5119699;27;20237;-60
2022/01/03 13:19:19;;;;;;;0.37;0.30;;;9.50;99.90;;;;;;5125708;27;20234;-59
2022/01/03 13:22:09;;;;;;;0.30;0.30;;;9.60;99.90;;;;;;5126137;27;20211;-59
2022/01/03 13:24:58;;;;;;;0.93;0.40;;;9.60;99.90;;;;;;5122360;27;20195;-59
2022/01/03 13:27:42;;;;;;;0.37;0.37;;;9.60;99.90;;;;;;5126746;27;20287;-61
2022/01/03 13:30:26;;;;;;;0.57;0.40;;;9.60;99.90;;;;;;5125967;27;20192;-64
2022/01/03 13:33:10;;;;;;;1.93;0.20;;;9.60;99.90;;;;;;5121155;27;20291;-61
2022/01/03 13:36:02;;;;;;;0.30;0.30;;;9.60;99.90;;;;;;5126106;27;20214;-58
2022/01/03 13:38:46;;;;;;;0.60;0.30;;;9.60;99.90;;;;;;5122099;27;20248;-60
2022/01/03 13:41:35;;;;;;;0.93;0.40;;;9.60;99.90;;;;;;5121039;27;20188;-62
2022/01/03 13:50:41;;;;;;;1.13;0.23;;;9.60;99.90;;;;;;5144645;27;20190;-66
2022/01/03 13:53:25;;;;;;;0.20;0.20;;;9.50;99.90;;;;;;5146738;27;20191;-57
2022/01/03 13:56:10;;;;;;;0.20;0.20;;;9.60;99.90;;;;;;5130879;27;20264;-62
2022/01/03 13:58:54;;;;;;;1.77;0.30;;;9.60;99.90;;;;;;5128588;27;20229;-60
2022/01/03 14:01:39;;;;;;;0.87;0.30;;;9.60;99.90;;;;;;5132346;27;20195;-57
2022/01/03 14:04:23;;;;;;;0.40;0.40;;;9.60;99.90;;;;;;5143477;27;20390;-65
2022/01/03 14:07:10;;;;;;;0.33;0.33;;;9.50;99.90;;;;;;5144237;27;20195;-65
2022/01/03 14:09:57;;;;;;;3.47;0.70;;;9.50;99.90;;;;;;5146882;27;20199;-63
2022/01/03 14:12:51;;;;;;;0.80;0.40;;;9.50;99.90;;;;;;5127350;27;20198;-57
2022/01/03 14:15:35;;;;;;;2.93;0.50;;;9.50;99.90;;;;;;5144993;27;20693;-64
2022/01/03 14:18:31;;;;;;;1.57;1.10;;;9.50;99.90;;;;;;5131094;27;20245;-59
2022/01/03 14:21:18;;;;;;;0.40;0.33;;;9.50;99.90;;;;;;5142491;27;20187;-62
2022/01/03 14:24:10;;;;;;;0.50;0.50;;;9.50;99.90;;;;;;5130837;27;20240;-62
2022/01/03 14:26:57;;;;;;;3.30;1.20;;;9.40;99.90;;;;;;5145302;27;20245;-65
2022/01/03 14:29:41;;;;;;;1.60;1.47;;;9.40;99.90;;;;;;5141930;27;20264;-58
2022/01/03 14:32:25;;;;;;;2.10;1.03;;;9.40;99.90;;;;;;5130954;27;20232;-65
2022/01/03 14:35:10;;;;;;;1.90;0.87;;;9.40;99.90;;;;;;5129800;27;20240;-62
2022/01/03 14:38:08;;;;;;;0.43;0.40;;;9.30;99.90;;;;;;5114603;27;20219;-63
2022/01/03 14:40:54;;;;;;;2.13;0.53;;;9.30;99.90;;;;;;5111918;27;20222;-62
2022/01/03 14:43:38;;;;;;;0.87;0.87;;;9.30;99.90;;;;;;5106325;28;20223;-62
2022/01/03 14:46:30;;;;;;;0.53;0.53;;;9.40;99.90;;;;;;5142962;27;20195;-62
2022/01/03 14:49:20;;;;;;;2.00;0.40;;;9.40;99.90;;;;;;5113998;28;20195;-63
2022/01/03 14:52:08;;;;;;;0.77;0.50;;;9.40;99.90;;;;;;5143883;27;20199;-65
2022/01/03 14:54:52;;;;;;;1.57;0.67;;;9.40;99.90;;;;;;5143962;27;20200;-64
2022/01/03 14:57:48;;;;;;;0.43;0.43;;;9.40;99.90;;;;;;5149242;27;20219;-56
2022/01/03 15:00:35;;;;;;;0.97;0.50;;;9.40;99.90;;;;;;5112210;27;20188;-64
2022/01/03 15:03:22;;;;;;;0.90;0.40;;;9.40;99.90;;;;;;5117649;27;20188;-65
2022/01/03 15:06:07;;;;;;;0.47;0.47;;;9.30;99.90;;;;;;5150820;27;20175;-61
2022/01/03 15:08:53;;;;;;;1.47;0.43;;;9.30;99.90;;;;;;5144500;27;20194;-61
2022/01/03 15:11:37;;;;;;;3.00;0.57;;;9.30;99.90;;;;;;5143292;27;20187;-59
2022/01/03 15:14:22;;;;;;;0.40;0.40;;;9.30;99.90;;;;;;5141920;27;20253;-61
2022/01/03 15:17:07;;;;;;;2.03;0.47;;;9.30;99.90;;;;;;5139151;27;20227;-56